sensor_id;sensor_type;location;lat;lon;timestamp;pressure;altitude;pressure_sealevel;temperature;humidity
62548;BME280;48602;45.192;5.722;2023-03-14T00:01:21;98342.63;;;25.09;66.71
62548;BME280;48602;45.192;5.722;2023-03-14T00:03:47;98374.47;;;24.81;68.28
62548;BME280;48602;45.192;5.722;2023-03-14T00:06:14;98371.28;;;24.77;68.42
62548;BME280;48602;45.192;5.722;2023-03-14T00:08:40;98363.53;;;24.98;68.41
62548;BME280;48602;45.192;5.722;2023-03-14T00:11:14;98347.03;;;24.53;69.34
62548;BME280;48602;45.192;5.722;2023-03-14T00:13:40;98327.31;;;24.52;69.22
62548;BME280;48602;45.192;5.722;2023-03-14T00:16:11;98342.66;;;24.60;68.68
62548;BME280;48602;45.192;5.722;2023-03-14T00:18:37;98335.41;;;24.77;69.58
62548;BME280;48602;45.192;5.722;2023-03-14T00:21:05;98334.41;;;24.94;69.15
62548;BME280;48602;45.192;5.722;2023-03-14T00:23:32;98360.66;;;25.00;68.24
62548;BME280;48602;45.192;5.722;2023-03-14T00:26:03;98360.47;;;25.18;68.11
62548;BME280;48602;45.192;5.722;2023-03-14T00:28:29;98361.25;;;25.34;67.46
62548;BME280;48602;45.192;5.722;2023-03-14T00:30:54;98366.53;;;25.28;60.59
62548;BME280;48602;45.192;5.722;2023-03-14T00:33:20;98368.94;;;25.07;64.82
62548;BME280;48602;45.192;5.722;2023-03-14T00:35:57;98368.22;;;25.21;64.70
62548;BME280;48602;45.192;5.722;2023-03-14T00:38:24;98362.34;;;25.64;64.97
62548;BME280;48602;45.192;5.722;2023-03-14T00:40:51;98374.66;;;25.75;61.86
62548;BME280;48602;45.192;5.722;2023-03-14T00:43:17;98371.28;;;25.73;62.36
62548;BME280;48602;45.192;5.722;2023-03-14T00:45:42;98370.94;;;25.68;63.30
62548;BME280;48602;45.192;5.722;2023-03-14T00:48:08;98367.13;;;25.93;63.97
62548;BME280;48602;45.192;5.722;2023-03-14T00:50:33;98377.19;;;26.07;63.47
62548;BME280;48602;45.192;5.722;2023-03-14T00:52:58;98381.09;;;26.28;63.07
62548;BME280;48602;45.192;5.722;2023-03-14T00:55:24;98386.09;;;26.47;64.38
62548;BME280;48602;45.192;5.722;2023-03-14T00:57:50;98376.25;;;26.69;64.05
62548;BME280;48602;45.192;5.722;2023-03-14T01:00:15;98381.66;;;26.69;64.70
62548;BME280;48602;45.192;5.722;2023-03-14T01:02:41;98400.84;;;26.59;64.79
62548;BME280;48602;45.192;5.722;2023-03-14T01:05:06;98419.56;;;26.84;64.52
62548;BME280;48602;45.192;5.722;2023-03-14T01:07:32;98434.59;;;26.94;63.76
62548;BME280;48602;45.192;5.722;2023-03-14T01:09:58;98433.50;;;27.18;63.35
62548;BME280;48602;45.192;5.722;2023-03-14T01:12:23;98427.41;;;27.01;64.56
62548;BME280;48602;45.192;5.722;2023-03-14T01:14:48;98399.69;;;26.99;64.49
62548;BME280;48602;45.192;5.722;2023-03-14T01:17:14;98380.78;;;27.14;64.00
62548;BME280;48602;45.192;5.722;2023-03-14T01:19:39;98370.81;;;27.15;64.17
62548;BME280;48602;45.192;5.722;2023-03-14T01:22:05;98341.97;;;27.22;63.96
62548;BME280;48602;45.192;5.722;2023-03-14T01:24:30;98332.94;;;27.15;63.09
62548;BME280;48602;45.192;5.722;2023-03-14T01:26:55;98348.66;;;26.96;63.90
62548;BME280;48602;45.192;5.722;2023-03-14T01:29:21;98360.19;;;26.90;64.09
62548;BME280;48602;45.192;5.722;2023-03-14T01:31:46;98381.31;;;26.95;63.70
62548;BME280;48602;45.192;5.722;2023-03-14T01:34:11;98389.63;;;27.08;64.03
62548;BME280;48602;45.192;5.722;2023-03-14T01:36:37;98391.03;;;27.04;63.79
62548;BME280;48602;45.192;5.722;2023-03-14T01:39:03;98392.16;;;27.09;64.02
62548;BME280;48602;45.192;5.722;2023-03-14T01:41:32;98390.19;;;27.03;63.69
62548;BME280;48602;45.192;5.722;2023-03-14T01:43:57;98390.13;;;27.12;63.45
62548;BME280;48602;45.192;5.722;2023-03-14T01:46:43;98379.53;;;27.02;63.42
62548;BME280;48602;45.192;5.722;2023-03-14T01:49:31;98406.63;;;27.17;63.49
62548;BME280;48602;45.192;5.722;2023-03-14T01:52:11;98425.22;;;27.34;63.44
62548;BME280;48602;45.192;5.722;2023-03-14T01:54:51;98419.06;;;27.26;63.73
62548;BME280;48602;45.192;5.722;2023-03-14T01:57:31;98426.81;;;27.29;63.91
62548;BME280;48602;45.192;5.722;2023-03-14T02:00:03;98426.25;;;27.33;63.62
62548;BME280;48602;45.192;5.722;2023-03-14T02:02:34;98431.59;;;27.27;63.30
62548;BME280;48602;45.192;5.722;2023-03-14T02:04:59;98426.66;;;27.30;63.86
62548;BME280;48602;45.192;5.722;2023-03-14T02:07:32;98416.38;;;27.40;63.42
62548;BME280;48602;45.192;5.722;2023-03-14T02:10:00;98400.50;;;27.52;63.46
62548;BME280;48602;45.192;5.722;2023-03-14T02:12:26;98386.44;;;27.57;63.04
62548;BME280;48602;45.192;5.722;2023-03-14T02:14:53;98365.25;;;27.60;62.99
62548;BME280;48602;45.192;5.722;2023-03-14T02:17:19;98354.41;;;27.60;63.12
62548;BME280;48602;45.192;5.722;2023-03-14T02:22:40;98350.50;;;27.63;62.26
62548;BME280;48602;45.192;5.722;2023-03-14T02:25:43;98354.19;;;27.76;62.35
62548;BME280;48602;45.192;5.722;2023-03-14T02:28:11;98338.97;;;27.75;62.48
62548;BME280;48602;45.192;5.722;2023-03-14T02:30:38;98322.16;;;27.80;62.01
62548;BME280;48602;45.192;5.722;2023-03-14T02:36:02;98309.03;;;27.62;62.51
62548;BME280;48602;45.192;5.722;2023-03-14T02:38:35;98313.00;;;27.66;62.32
62548;BME280;48602;45.192;5.722;2023-03-14T02:41:02;98308.44;;;27.67;62.67
62548;BME280;48602;45.192;5.722;2023-03-14T02:43:27;98305.09;;;27.65;61.79
62548;BME280;48602;45.192;5.722;2023-03-14T02:45:53;98298.25;;;27.69;62.61
62548;BME280;48602;45.192;5.722;2023-03-14T02:50:46;98291.66;;;27.57;62.53
62548;BME280;48602;45.192;5.722;2023-03-14T02:53:17;98278.59;;;27.45;62.01
62548;BME280;48602;45.192;5.722;2023-03-14T02:55:47;98278.47;;;27.54;62.08
62548;BME280;48602;45.192;5.722;2023-03-14T02:58:14;98273.16;;;27.45;61.73
62548;BME280;48602;45.192;5.722;2023-03-14T03:00:39;98279.22;;;27.48;61.93
62548;BME280;48602;45.192;5.722;2023-03-14T03:03:05;98277.38;;;27.48;62.59
62548;BME280;48602;45.192;5.722;2023-03-14T03:05:33;98277.09;;;27.58;62.22
62548;BME280;48602;45.192;5.722;2023-03-14T03:07:58;98272.38;;;27.52;61.50
62548;BME280;48602;45.192;5.722;2023-03-14T03:10:24;98272.72;;;27.27;62.26
62548;BME280;48602;45.192;5.722;2023-03-14T03:12:50;98270.22;;;27.11;62.27
62548;BME280;48602;45.192;5.722;2023-03-14T03:15:16;98264.72;;;26.82;62.68
62548;BME280;48602;45.192;5.722;2023-03-14T03:17:42;98264.34;;;26.70;62.79
62548;BME280;48602;45.192;5.722;2023-03-14T03:20:08;98265.28;;;26.62;62.89
62548;BME280;48602;45.192;5.722;2023-03-14T03:22:35;98262.59;;;26.62;62.71
62548;BME280;48602;45.192;5.722;2023-03-14T03:25:01;98265.84;;;26.58;63.23
62548;BME280;48602;45.192;5.722;2023-03-14T03:27:29;98264.16;;;26.57;63.41
62548;BME280;48602;45.192;5.722;2023-03-14T03:29:55;98253.47;;;26.63;63.08
62548;BME280;48602;45.192;5.722;2023-03-14T03:32:21;98258.22;;;26.61;63.15
62548;BME280;48602;45.192;5.722;2023-03-14T03:34:46;98250.94;;;26.62;63.70
62548;BME280;48602;45.192;5.722;2023-03-14T03:37:11;98243.47;;;26.64;63.40
62548;BME280;48602;45.192;5.722;2023-03-14T03:39:37;98241.34;;;26.74;63.50
62548;BME280;48602;45.192;5.722;2023-03-14T03:42:02;98248.25;;;26.76;63.62
62548;BME280;48602;45.192;5.722;2023-03-14T03:44:27;98246.84;;;26.81;62.75
62548;BME280;48602;45.192;5.722;2023-03-14T03:46:53;98233.78;;;26.84;63.16
62548;BME280;48602;45.192;5.722;2023-03-14T03:49:18;98233.78;;;26.84;62.57
62548;BME280;48602;45.192;5.722;2023-03-14T03:51:43;98233.41;;;26.87;62.62
62548;BME280;48602;45.192;5.722;2023-03-14T03:54:09;98232.66;;;26.64;63.34
62548;BME280;48602;45.192;5.722;2023-03-14T03:56:34;98272.50;;;16.73;100.00
62548;BME280;48602;45.192;5.722;2023-03-14T03:59:00;98279.69;;;14.06;100.00
62548;BME280;48602;45.192;5.722;2023-03-14T04:01:25;98271.47;;;13.03;100.00
62548;BME280;48602;45.192;5.722;2023-03-14T04:03:50;98278.22;;;12.51;100.00
62548;BME280;48602;45.192;5.722;2023-03-14T04:06:16;98266.78;;;12.22;100.00
62548;BME280;48602;45.192;5.722;2023-03-14T04:08:41;98263.22;;;12.08;100.00
62548;BME280;48602;45.192;5.722;2023-03-14T04:11:07;98266.69;;;11.94;100.00
62548;BME280;48602;45.192;5.722;2023-03-14T04:13:32;98253.13;;;11.86;100.00
62548;BME280;48602;45.192;5.722;2023-03-14T04:15:58;98271.19;;;11.78;100.00
62548;BME280;48602;45.192;5.722;2023-03-14T04:18:24;98273.22;;;11.73;100.00
62548;BME280;48602;45.192;5.722;2023-03-14T04:20:53;98273.50;;;11.68;100.00
62548;BME280;48602;45.192;5.722;2023-03-14T04:23:20;98252.63;;;11.64;100.00
62548;BME280;48602;45.192;5.722;2023-03-14T04:25:45;98244.13;;;11.59;100.00
62548;BME280;48602;45.192;5.722;2023-03-14T04:28:10;98238.94;;;11.57;100.00
62548;BME280;48602;45.192;5.722;2023-03-14T04:30:36;98233.84;;;11.54;100.00
62548;BME280;48602;45.192;5.722;2023-03-14T04:33:01;98229.50;;;11.53;100.00
62548;BME280;48602;45.192;5.722;2023-03-14T04:35:27;98226.00;;;11.52;100.00
62548;BME280;48602;45.192;5.722;2023-03-14T04:37:52;98217.25;;;11.52;100.00
62548;BME280;48602;45.192;5.722;2023-03-14T04:40:18;98220.91;;;11.49;100.00
62548;BME280;48602;45.192;5.722;2023-03-14T04:42:43;98217.50;;;11.47;100.00
62548;BME280;48602;45.192;5.722;2023-03-14T04:45:09;98216.66;;;11.47;100.00
62548;BME280;48602;45.192;5.722;2023-03-14T04:47:35;98214.19;;;11.44;100.00
62548;BME280;48602;45.192;5.722;2023-03-14T04:50:01;98209.94;;;11.41;100.00
62548;BME280;48602;45.192;5.722;2023-03-14T04:52:27;98204.00;;;11.38;100.00
62548;BME280;48602;45.192;5.722;2023-03-14T04:54:53;98202.38;;;11.35;100.00
62548;BME280;48602;45.192;5.722;2023-03-14T04:57:18;98196.34;;;11.33;100.00
62548;BME280;48602;45.192;5.722;2023-03-14T04:59:44;98174.91;;;11.24;100.00
62548;BME280;48602;45.192;5.722;2023-03-14T05:02:09;98192.97;;;11.15;100.00
62548;BME280;48602;45.192;5.722;2023-03-14T05:04:34;98201.16;;;11.11;100.00
62548;BME280;48602;45.192;5.722;2023-03-14T05:07:00;98194.53;;;11.04;100.00
62548;BME280;48602;45.192;5.722;2023-03-14T05:09:25;98185.00;;;11.01;100.00
62548;BME280;48602;45.192;5.722;2023-03-14T05:11:51;98188.66;;;10.99;100.00
62548;BME280;48602;45.192;5.722;2023-03-14T05:14:16;98188.91;;;10.94;100.00
62548;BME280;48602;45.192;5.722;2023-03-14T05:16:42;98185.72;;;10.89;100.00
62548;BME280;48602;45.192;5.722;2023-03-14T05:19:07;98190.38;;;10.84;100.00
62548;BME280;48602;45.192;5.722;2023-03-14T05:21:33;98183.66;;;10.78;100.00
62548;BME280;48602;45.192;5.722;2023-03-14T05:23:58;98189.09;;;10.75;100.00
62548;BME280;48602;45.192;5.722;2023-03-14T05:26:23;98174.41;;;10.71;100.00
62548;BME280;48602;45.192;5.722;2023-03-14T05:28:49;98184.09;;;10.71;100.00
62548;BME280;48602;45.192;5.722;2023-03-14T05:31:14;98185.88;;;10.70;100.00
62548;BME280;48602;45.192;5.722;2023-03-14T05:33:40;98188.44;;;10.72;100.00
62548;BME280;48602;45.192;5.722;2023-03-14T05:36:06;98183.91;;;10.74;100.00
62548;BME280;48602;45.192;5.722;2023-03-14T05:38:31;98176.69;;;10.77;100.00
62548;BME280;48602;45.192;5.722;2023-03-14T05:40:56;98181.94;;;10.77;100.00
62548;BME280;48602;45.192;5.722;2023-03-14T05:43:22;98180.94;;;10.80;100.00
62548;BME280;48602;45.192;5.722;2023-03-14T05:45:47;98186.22;;;10.80;100.00
62548;BME280;48602;45.192;5.722;2023-03-14T05:48:12;98194.19;;;10.78;100.00
62548;BME280;48602;45.192;5.722;2023-03-14T05:50:38;98195.97;;;10.78;100.00
62548;BME280;48602;45.192;5.722;2023-03-14T05:53:03;98202.28;;;10.75;100.00
62548;BME280;48602;45.192;5.722;2023-03-14T05:55:29;98200.75;;;10.71;100.00
62548;BME280;48602;45.192;5.722;2023-03-14T05:57:54;98205.09;;;10.72;100.00
62548;BME280;48602;45.192;5.722;2023-03-14T06:00:20;98195.50;;;10.71;100.00
62548;BME280;48602;45.192;5.722;2023-03-14T06:02:46;98198.00;;;10.73;100.00
62548;BME280;48602;45.192;5.722;2023-03-14T06:05:12;98197.09;;;10.74;100.00
62548;BME280;48602;45.192;5.722;2023-03-14T06:07:37;98203.47;;;10.70;100.00
62548;BME280;48602;45.192;5.722;2023-03-14T06:10:03;98202.63;;;10.69;100.00
62548;BME280;48602;45.192;5.722;2023-03-14T06:12:29;98208.75;;;10.70;100.00
62548;BME280;48602;45.192;5.722;2023-03-14T06:14:54;98207.91;;;10.69;100.00
62548;BME280;48602;45.192;5.722;2023-03-14T06:17:20;98208.75;;;10.70;100.00
62548;BME280;48602;45.192;5.722;2023-03-14T06:19:46;98204.34;;;10.70;100.00
62548;BME280;48602;45.192;5.722;2023-03-14T06:22:11;98207.81;;;10.71;100.00
62548;BME280;48602;45.192;5.722;2023-03-14T06:24:36;98211.97;;;10.75;100.00
62548;BME280;48602;45.192;5.722;2023-03-14T06:27:02;98212.41;;;10.83;100.00
62548;BME280;48602;45.192;5.722;2023-03-14T06:29:28;98218.16;;;10.90;100.00
62548;BME280;48602;45.192;5.722;2023-03-14T06:31:54;98213.50;;;10.95;100.00
62548;BME280;48602;45.192;5.722;2023-03-14T06:34:19;98218.59;;;10.98;100.00
62548;BME280;48602;45.192;5.722;2023-03-14T06:36:45;98215.72;;;11.02;100.00
62548;BME280;48602;45.192;5.722;2023-03-14T06:39:10;98215.72;;;11.02;100.00
62548;BME280;48602;45.192;5.722;2023-03-14T06:41:35;98223.47;;;11.05;100.00
62548;BME280;48602;45.192;5.722;2023-03-14T06:44:01;98229.41;;;11.09;100.00
62548;BME280;48602;45.192;5.722;2023-03-14T06:46:26;98222.94;;;11.14;100.00
62548;BME280;48602;45.192;5.722;2023-03-14T06:48:52;98224.56;;;11.17;100.00
62548;BME280;48602;45.192;5.722;2023-03-14T06:51:18;98219.03;;;11.22;100.00
62548;BME280;48602;45.192;5.722;2023-03-14T06:53:43;98223.38;;;11.23;100.00
62548;BME280;48602;45.192;5.722;2023-03-14T06:56:09;98232.38;;;11.18;100.00
62548;BME280;48602;45.192;5.722;2023-03-14T06:58:35;98227.34;;;11.14;100.00
62548;BME280;48602;45.192;5.722;2023-03-14T07:01:00;98234.50;;;11.12;100.00
62548;BME280;48602;45.192;5.722;2023-03-14T07:03:26;98235.53;;;11.09;100.00
62548;BME280;48602;45.192;5.722;2023-03-14T07:05:52;98240.97;;;11.06;100.00
62548;BME280;48602;45.192;5.722;2023-03-14T07:08:18;98246.53;;;11.02;100.00
62548;BME280;48602;45.192;5.722;2023-03-14T07:10:43;98239.94;;;10.93;100.00
62548;BME280;48602;45.192;5.722;2023-03-14T07:13:08;98250.50;;;10.93;100.00
62548;BME280;48602;45.192;5.722;2023-03-14T07:15:34;98251.28;;;10.95;100.00
62548;BME280;48602;45.192;5.722;2023-03-14T07:17:59;98248.56;;;10.97;100.00
62548;BME280;48602;45.192;5.722;2023-03-14T07:20:25;98244.81;;;11.01;100.00
62548;BME280;48602;45.192;5.722;2023-03-14T07:22:50;98256.06;;;11.04;100.00
62548;BME280;48602;45.192;5.722;2023-03-14T07:25:16;98261.13;;;11.07;100.00
62548;BME280;48602;45.192;5.722;2023-03-14T07:27:46;98270.81;;;11.07;100.00
62548;BME280;48602;45.192;5.722;2023-03-14T07:30:13;98274.06;;;11.12;100.00
62548;BME280;48602;45.192;5.722;2023-03-14T07:32:39;98274.75;;;11.15;100.00
62548;BME280;48602;45.192;5.722;2023-03-14T07:35:04;98282.34;;;11.22;100.00
62548;BME280;48602;45.192;5.722;2023-03-14T07:37:30;98282.91;;;11.27;100.00
62548;BME280;48602;45.192;5.722;2023-03-14T07:39:55;98288.94;;;11.29;100.00
62548;BME280;48602;45.192;5.722;2023-03-14T07:42:21;98293.38;;;11.28;100.00
62548;BME280;48602;45.192;5.722;2023-03-14T07:44:46;98296.94;;;11.27;100.00
62548;BME280;48602;45.192;5.722;2023-03-14T07:47:11;98299.66;;;11.26;100.00
62548;BME280;48602;45.192;5.722;2023-03-14T07:49:37;98300.69;;;11.23;100.00
62548;BME280;48602;45.192;5.722;2023-03-14T07:52:02;98307.66;;;11.24;100.00
62548;BME280;48602;45.192;5.722;2023-03-14T07:54:28;98309.56;;;11.22;100.00
62548;BME280;48602;45.192;5.722;2023-03-14T07:56:53;98321.72;;;11.09;100.00
62548;BME280;48602;45.192;5.722;2023-03-14T07:59:19;98321.47;;;10.98;100.00
62548;BME280;48602;45.192;5.722;2023-03-14T08:01:44;98324.63;;;10.89;100.00
62548;BME280;48602;45.192;5.722;2023-03-14T08:04:10;98326.94;;;10.77;100.00
62548;BME280;48602;45.192;5.722;2023-03-14T08:06:36;98334.09;;;10.75;100.00
62548;BME280;48602;45.192;5.722;2023-03-14T08:09:02;98334.28;;;10.72;100.00
62548;BME280;48602;45.192;5.722;2023-03-14T08:11:27;98343.13;;;10.71;100.00
62548;BME280;48602;45.192;5.722;2023-03-14T08:13:53;98353.66;;;10.71;100.00
62548;BME280;48602;45.192;5.722;2023-03-14T08:16:19;98359.88;;;10.70;100.00
62548;BME280;48602;45.192;5.722;2023-03-14T08:18:45;98365.38;;;10.66;100.00
62548;BME280;48602;45.192;5.722;2023-03-14T08:21:13;98368.31;;;10.60;100.00
62548;BME280;48602;45.192;5.722;2023-03-14T08:23:38;98375.38;;;10.59;100.00
62548;BME280;48602;45.192;5.722;2023-03-14T08:26:04;98366.59;;;10.59;100.00
62548;BME280;48602;45.192;5.722;2023-03-14T08:28:29;98377.84;;;10.62;100.00
62548;BME280;48602;45.192;5.722;2023-03-14T08:30:57;98383.66;;;10.69;100.00
62548;BME280;48602;45.192;5.722;2023-03-14T08:33:24;98387.16;;;10.69;100.00
62548;BME280;48602;45.192;5.722;2023-03-14T08:35:52;98395.91;;;10.70;100.00
62548;BME280;48602;45.192;5.722;2023-03-14T08:38:18;98388.94;;;10.69;100.00
62548;BME280;48602;45.192;5.722;2023-03-14T08:40:43;98401.84;;;10.73;100.00
62548;BME280;48602;45.192;5.722;2023-03-14T08:43:09;98405.97;;;10.79;100.00
62548;BME280;48602;45.192;5.722;2023-03-14T08:45:34;98403.09;;;10.83;100.00
62548;BME280;48602;45.192;5.722;2023-03-14T08:47:59;98396.81;;;10.86;100.00
62548;BME280;48602;45.192;5.722;2023-03-14T08:50:25;98410.78;;;10.88;100.00
62548;BME280;48602;45.192;5.722;2023-03-14T08:52:50;98420.41;;;10.89;100.00
62548;BME280;48602;45.192;5.722;2023-03-14T08:55:16;98415.00;;;10.91;100.00
62548;BME280;48602;45.192;5.722;2023-03-14T08:57:41;98423.69;;;10.93;100.00
62548;BME280;48602;45.192;5.722;2023-03-14T09:00:07;98426.34;;;10.93;100.00
62548;BME280;48602;45.192;5.722;2023-03-14T09:02:39;98438.59;;;10.94;100.00
62548;BME280;48602;45.192;5.722;2023-03-14T09:05:05;98444.56;;;10.97;100.00
62548;BME280;48602;45.192;5.722;2023-03-14T09:07:30;98449.69;;;11.00;100.00
62548;BME280;48602;45.192;5.722;2023-03-14T09:09:56;98457.59;;;11.00;100.00
62548;BME280;48602;45.192;5.722;2023-03-14T09:12:21;98453.16;;;11.01;100.00
62548;BME280;48602;45.192;5.722;2023-03-14T09:14:47;98457.44;;;11.03;100.00
62548;BME280;48602;45.192;5.722;2023-03-14T09:17:12;98464.22;;;11.07;100.00
62548;BME280;48602;45.192;5.722;2023-03-14T09:19:37;98468.34;;;11.13;100.00
62548;BME280;48602;45.192;5.722;2023-03-14T09:22:03;98479.66;;;11.15;100.00
62548;BME280;48602;45.192;5.722;2023-03-14T09:24:28;98491.06;;;11.15;100.00
62548;BME280;48602;45.192;5.722;2023-03-14T09:26:55;98487.75;;;11.12;100.00
62548;BME280;48602;45.192;5.722;2023-03-14T09:29:22;98510.00;;;11.06;100.00
62548;BME280;48602;45.192;5.722;2023-03-14T09:31:47;98523.44;;;11.02;100.00
62548;BME280;48602;45.192;5.722;2023-03-14T09:34:12;98526.63;;;10.91;100.00
62548;BME280;48602;45.192;5.722;2023-03-14T09:36:38;98537.81;;;10.79;100.00
62548;BME280;48602;45.192;5.722;2023-03-14T09:39:04;98545.53;;;10.65;100.00
62548;BME280;48602;45.192;5.722;2023-03-14T09:41:35;98556.78;;;10.51;100.00
62548;BME280;48602;45.192;5.722;2023-03-14T09:44:08;98554.56;;;10.42;100.00
62548;BME280;48602;45.192;5.722;2023-03-14T09:46:37;98562.53;;;10.40;100.00
62548;BME280;48602;45.192;5.722;2023-03-14T09:49:10;98563.47;;;10.39;100.00
62548;BME280;48602;45.192;5.722;2023-03-14T09:51:37;98575.09;;;10.35;100.00
62548;BME280;48602;45.192;5.722;2023-03-14T09:54:05;98586.00;;;10.28;100.00
62548;BME280;48602;45.192;5.722;2023-03-14T09:56:32;98590.81;;;10.18;100.00
62548;BME280;48602;45.192;5.722;2023-03-14T09:59:00;98602.56;;;10.11;100.00
62548;BME280;48602;45.192;5.722;2023-03-14T10:01:30;98611.59;;;10.05;100.00
62548;BME280;48602;45.192;5.722;2023-03-14T10:04:02;98617.09;;;10.01;100.00
62548;BME280;48602;45.192;5.722;2023-03-14T10:06:31;98623.34;;;9.98;100.00
62548;BME280;48602;45.192;5.722;2023-03-14T10:08:57;98622.44;;;9.99;100.00
62548;BME280;48602;45.192;5.722;2023-03-14T10:11:23;98618.75;;;10.03;100.00
62548;BME280;48602;45.192;5.722;2023-03-14T10:14:02;98621.06;;;10.09;100.00
62548;BME280;48602;45.192;5.722;2023-03-14T10:16:31;98620.69;;;10.19;100.00
62548;BME280;48602;45.192;5.722;2023-03-14T10:19:04;98630.00;;;10.26;100.00
62548;BME280;48602;45.192;5.722;2023-03-14T10:21:30;98641.03;;;10.34;100.00
62548;BME280;48602;45.192;5.722;2023-03-14T10:24:20;98634.47;;;10.42;100.00
62548;BME280;48602;45.192;5.722;2023-03-14T10:26:54;98646.16;;;10.56;100.00
62548;BME280;48602;45.192;5.722;2023-03-14T10:29:19;98682.91;;;10.59;100.00
62548;BME280;48602;45.192;5.722;2023-03-14T10:32:02;98661.13;;;10.55;100.00
62548;BME280;48602;45.192;5.722;2023-03-14T10:34:37;98671.66;;;10.55;100.00
62548;BME280;48602;45.192;5.722;2023-03-14T10:37:21;98677.94;;;10.53;100.00
62548;BME280;48602;45.192;5.722;2023-03-14T10:39:51;98686.78;;;10.52;100.00
62548;BME280;48602;45.192;5.722;2023-03-14T10:42:21;98697.59;;;10.45;100.00
62548;BME280;48602;45.192;5.722;2023-03-14T10:44:54;98704.84;;;10.40;100.00
62548;BME280;48602;45.192;5.722;2023-03-14T10:47:23;98720.03;;;10.35;100.00
62548;BME280;48602;45.192;5.722;2023-03-14T10:49:49;98723.00;;;10.28;100.00
62548;BME280;48602;45.192;5.722;2023-03-14T10:52:22;98723.19;;;10.23;100.00
62548;BME280;48602;45.192;5.722;2023-03-14T10:54:59;98712.53;;;10.26;100.00
62548;BME280;48602;45.192;5.722;2023-03-14T10:57:26;98711.25;;;10.35;100.00
62548;BME280;48602;45.192;5.722;2023-03-14T10:59:53;98714.91;;;10.51;100.00
62548;BME280;48602;45.192;5.722;2023-03-14T11:02:32;98711.75;;;10.62;100.00
62548;BME280;48602;45.192;5.722;2023-03-14T11:07:39;98711.69;;;10.82;100.00
62548;BME280;48602;45.192;5.722;2023-03-14T11:10:29;98718.13;;;10.94;100.00
62548;BME280;48602;45.192;5.722;2023-03-14T11:18:51;98728.47;;;11.34;100.00
62548;BME280;48602;45.192;5.722;2023-03-14T11:21:29;98736.56;;;11.48;100.00
62548;BME280;48602;45.192;5.722;2023-03-14T11:32:32;98742.78;;;11.99;94.44
62548;BME280;48602;45.192;5.722;2023-03-14T11:35:03;98765.94;;;12.11;100.00
62548;BME280;48602;45.192;5.722;2023-03-14T11:37:36;98777.91;;;12.18;82.42
62548;BME280;48602;45.192;5.722;2023-03-14T11:42:33;98757.47;;;12.22;73.28
62548;BME280;48602;45.192;5.722;2023-03-14T11:45:00;98746.31;;;12.33;100.00
62548;BME280;48602;45.192;5.722;2023-03-14T11:47:30;98745.22;;;12.37;84.40
62548;BME280;48602;45.192;5.722;2023-03-14T11:50:12;98741.38;;;12.42;86.39
62548;BME280;48602;45.192;5.722;2023-03-14T11:52:50;98742.00;;;12.47;95.10
62548;BME280;48602;45.192;5.722;2023-03-14T11:55:28;98739.97;;;12.52;95.45
62548;BME280;48602;45.192;5.722;2023-03-14T11:58:00;98731.75;;;12.57;100.00
62548;BME280;48602;45.192;5.722;2023-03-14T12:00:28;98729.09;;;12.57;79.17
62548;BME280;48602;45.192;5.722;2023-03-14T12:11:12;98747.13;;;12.66;100.00
62548;BME280;48602;45.192;5.722;2023-03-14T12:13:40;98758.66;;;12.65;85.79
62548;BME280;48602;45.192;5.722;2023-03-14T12:16:18;98751.13;;;12.57;82.49
62548;BME280;48602;45.192;5.722;2023-03-14T12:18:45;98776.03;;;12.53;86.50
62548;BME280;48602;45.192;5.722;2023-03-14T12:21:11;98772.16;;;12.43;84.78
62548;BME280;48602;45.192;5.722;2023-03-14T12:26:12;98747.25;;;12.32;100.00
62548;BME280;48602;45.192;5.722;2023-03-14T12:28:43;98767.31;;;12.36;100.00
62548;BME280;48602;45.192;5.722;2023-03-14T12:31:46;98762.00;;;12.36;100.00
62548;BME280;48602;45.192;5.722;2023-03-14T12:42:02;98747.22;;;12.65;100.00
62548;BME280;48602;45.192;5.722;2023-03-14T12:46:57;98748.25;;;12.93;100.00
62548;BME280;48602;45.192;5.722;2023-03-14T12:49:29;98734.84;;;13.12;100.00
62548;BME280;48602;45.192;5.722;2023-03-14T12:52:00;98732.63;;;13.36;100.00
62548;BME280;48602;45.192;5.722;2023-03-14T12:57:19;98725.41;;;13.84;100.00
62548;BME280;48602;45.192;5.722;2023-03-14T12:59:52;98722.50;;;14.03;100.00
62548;BME280;48602;45.192;5.722;2023-03-14T13:02:21;98725.72;;;14.08;100.00
62548;BME280;48602;45.192;5.722;2023-03-14T13:04:52;98727.16;;;14.13;100.00
62548;BME280;48602;45.192;5.722;2023-03-14T13:15:47;98699.72;;;14.43;100.00
62548;BME280;48602;45.192;5.722;2023-03-14T13:21:27;98708.63;;;14.42;100.00
62548;BME280;48602;45.192;5.722;2023-03-14T13:26:32;98717.50;;;14.12;100.00
62548;BME280;48602;45.192;5.722;2023-03-14T13:28:59;98711.16;;;14.01;100.00
62548;BME280;48602;45.192;5.722;2023-03-14T13:31:25;98721.25;;;13.94;100.00
62548;BME280;48602;45.192;5.722;2023-03-14T13:34:01;98720.13;;;13.84;100.00
62548;BME280;48602;45.192;5.722;2023-03-14T13:36:27;98730.22;;;13.77;100.00
62548;BME280;48602;45.192;5.722;2023-03-14T13:39:00;98741.28;;;13.70;100.00
62548;BME280;48602;45.192;5.722;2023-03-14T13:41:27;98741.41;;;13.52;100.00
62548;BME280;48602;45.192;5.722;2023-03-14T13:44:00;98751.94;;;13.38;100.00
62548;BME280;48602;45.192;5.722;2023-03-14T13:46:27;98745.63;;;13.25;100.00
62548;BME280;48602;45.192;5.722;2023-03-14T13:49:06;98742.56;;;13.17;100.00
62548;BME280;48602;45.192;5.722;2023-03-14T13:51:34;98752.88;;;13.06;100.00
62548;BME280;48602;45.192;5.722;2023-03-14T13:54:00;98755.19;;;12.96;100.00
62548;BME280;48602;45.192;5.722;2023-03-14T13:56:30;98760.72;;;12.91;100.00
62548;BME280;48602;45.192;5.722;2023-03-14T13:58:56;98765.50;;;12.85;100.00
62548;BME280;48602;45.192;5.722;2023-03-14T14:03:52;98762.88;;;12.85;100.00